sensor_id;sensor_type;location;lat;lon;timestamp;P1;durP1;ratioP1;P2;durP2;ratioP2
10661;SDS011;5379;51.034;7.006;2024-01-16T00:00:06;3.43;;;3.03;;
10661;SDS011;5379;51.034;7.006;2024-01-16T00:02:35;2.53;;;2.43;;
10661;SDS011;5379;51.034;7.006;2024-01-16T00:05:02;3.53;;;3.27;;
10661;SDS011;5379;51.034;7.006;2024-01-16T00:07:29;3.60;;;3.30;;
10661;SDS011;5379;51.034;7.006;2024-01-16T00:09:57;26.80;;;3.67;;
10661;SDS011;5379;51.034;7.006;2024-01-16T00:12:24;3.70;;;3.37;;
10661;SDS011;5379;51.034;7.006;2024-01-16T00:14:51;4.00;;;3.60;;
10661;SDS011;5379;51.034;7.006;2024-01-16T00:17:18;3.50;;;3.20;;
10661;SDS011;5379;51.034;7.006;2024-01-16T00:19:47;3.87;;;3.50;;
10661;SDS011;5379;51.034;7.006;2024-01-16T00:22:13;2.87;;;2.63;;
10661;SDS011;5379;51.034;7.006;2024-01-16T00:24:41;3.33;;;3.13;;
10661;SDS011;5379;51.034;7.006;2024-01-16T00:27:08;4.20;;;3.80;;
10661;SDS011;5379;51.034;7.006;2024-01-16T00:29:35;4.50;;;4.10;;
10661;SDS011;5379;51.034;7.006;2024-01-16T00:32:01;4.20;;;3.83;;
10661;SDS011;5379;51.034;7.006;2024-01-16T00:34:28;3.20;;;3.10;;
10661;SDS011;5379;51.034;7.006;2024-01-16T00:36:56;3.67;;;3.37;;
10661;SDS011;5379;51.034;7.006;2024-01-16T00:39:23;3.93;;;3.63;;
10661;SDS011;5379;51.034;7.006;2024-01-16T00:41:50;4.17;;;3.77;;
10661;SDS011;5379;51.034;7.006;2024-01-16T00:44:17;4.47;;;4.03;;
10661;SDS011;5379;51.034;7.006;2024-01-16T00:46:44;3.43;;;3.23;;
10661;SDS011;5379;51.034;7.006;2024-01-16T00:49:11;3.33;;;3.13;;
10661;SDS011;5379;51.034;7.006;2024-01-16T00:51:38;4.73;;;4.03;;
10661;SDS011;5379;51.034;7.006;2024-01-16T00:54:06;3.73;;;3.43;;
10661;SDS011;5379;51.034;7.006;2024-01-16T00:56:33;2.97;;;2.77;;
10661;SDS011;5379;51.034;7.006;2024-01-16T00:59:01;5.03;;;4.53;;
10661;SDS011;5379;51.034;7.006;2024-01-16T05:31:43;5.23;;;4.77;;
10661;SDS011;5379;51.034;7.006;2024-01-16T05:34:10;11.33;;;4.67;;
10661;SDS011;5379;51.034;7.006;2024-01-16T05:36:38;5.30;;;4.80;;
10661;SDS011;5379;51.034;7.006;2024-01-16T05:39:05;6.37;;;4.00;;
10661;SDS011;5379;51.034;7.006;2024-01-16T05:41:33;10.00;;;4.43;;
10661;SDS011;5379;51.034;7.006;2024-01-16T05:44:00;6.17;;;3.80;;
10661;SDS011;5379;51.034;7.006;2024-01-16T05:46:28;14.80;;;4.97;;
10661;SDS011;5379;51.034;7.006;2024-01-16T05:48:57;5.50;;;4.33;;
10661;SDS011;5379;51.034;7.006;2024-01-16T05:51:24;5.67;;;4.47;;
10661;SDS011;5379;51.034;7.006;2024-01-16T05:53:52;4.73;;;3.57;;
10661;SDS011;5379;51.034;7.006;2024-01-16T05:56:19;5.50;;;5.00;;
10661;SDS011;5379;51.034;7.006;2024-01-16T05:58:46;7.03;;;4.13;;
10661;SDS011;5379;51.034;7.006;2024-01-16T06:01:14;4.30;;;3.90;;
10661;SDS011;5379;51.034;7.006;2024-01-16T06:03:41;5.50;;;3.30;;
10661;SDS011;5379;51.034;7.006;2024-01-16T06:06:12;8.73;;;3.53;;
10661;SDS011;5379;51.034;7.006;2024-01-16T06:08:39;3.97;;;3.33;;
10661;SDS011;5379;51.034;7.006;2024-01-16T06:11:07;3.50;;;3.20;;
10661;SDS011;5379;51.034;7.006;2024-01-16T06:13:35;5.00;;;3.30;;
10661;SDS011;5379;51.034;7.006;2024-01-16T06:16:03;4.83;;;3.40;;
10661;SDS011;5379;51.034;7.006;2024-01-16T06:18:33;4.83;;;3.17;;
10661;SDS011;5379;51.034;7.006;2024-01-16T06:21:00;4.93;;;3.40;;
10661;SDS011;5379;51.034;7.006;2024-01-16T06:23:28;3.97;;;3.20;;
10661;SDS011;5379;51.034;7.006;2024-01-16T06:25:55;17.63;;;3.13;;
10661;SDS011;5379;51.034;7.006;2024-01-16T06:28:23;3.47;;;3.10;;
10661;SDS011;5379;51.034;7.006;2024-01-16T06:30:50;9.23;;;3.73;;
10661;SDS011;5379;51.034;7.006;2024-01-16T06:33:17;4.50;;;2.57;;
10661;SDS011;5379;51.034;7.006;2024-01-16T06:35:44;6.57;;;3.17;;
10661;SDS011;5379;51.034;7.006;2024-01-16T06:38:11;4.27;;;2.83;;
10661;SDS011;5379;51.034;7.006;2024-01-16T06:40:40;3.00;;;2.73;;
10661;SDS011;5379;51.034;7.006;2024-01-16T06:43:06;5.03;;;2.97;;
10661;SDS011;5379;51.034;7.006;2024-01-16T06:45:34;2.70;;;2.50;;
10661;SDS011;5379;51.034;7.006;2024-01-16T06:48:00;3.67;;;2.17;;
10661;SDS011;5379;51.034;7.006;2024-01-16T06:50:28;3.13;;;2.67;;
10661;SDS011;5379;51.034;7.006;2024-01-16T06:52:55;3.73;;;2.60;;
10661;SDS011;5379;51.034;7.006;2024-01-16T06:55:22;7.07;;;2.43;;
10661;SDS011;5379;51.034;7.006;2024-01-16T06:57:51;5.03;;;2.37;;
10661;SDS011;5379;51.034;7.006;2024-01-16T07:00:17;3.97;;;2.80;;
10661;SDS011;5379;51.034;7.006;2024-01-16T07:02:47;4.37;;;2.87;;
10661;SDS011;5379;51.034;7.006;2024-01-16T07:05:16;3.37;;;2.30;;
10661;SDS011;5379;51.034;7.006;2024-01-16T07:07:43;5.03;;;2.50;;
10661;SDS011;5379;51.034;7.006;2024-01-16T07:10:10;3.03;;;2.67;;
10661;SDS011;5379;51.034;7.006;2024-01-16T07:12:43;8.30;;;3.87;;
10661;SDS011;5379;51.034;7.006;2024-01-16T07:15:11;3.53;;;2.77;;
10661;SDS011;5379;51.034;7.006;2024-01-16T07:17:38;5.10;;;3.13;;
10661;SDS011;5379;51.034;7.006;2024-01-16T07:20:05;5.33;;;3.27;;
10661;SDS011;5379;51.034;7.006;2024-01-16T07:22:33;3.87;;;2.67;;
10661;SDS011;5379;51.034;7.006;2024-01-16T07:25:00;6.97;;;2.60;;
10661;SDS011;5379;51.034;7.006;2024-01-16T07:27:28;9.77;;;3.60;;
10661;SDS011;5379;51.034;7.006;2024-01-16T07:29:55;2.60;;;2.40;;
10661;SDS011;5379;51.034;7.006;2024-01-16T07:32:24;5.07;;;3.40;;
10661;SDS011;5379;51.034;7.006;2024-01-16T07:34:51;3.00;;;2.60;;
10661;SDS011;5379;51.034;7.006;2024-01-16T07:37:18;2.83;;;2.53;;
10661;SDS011;5379;51.034;7.006;2024-01-16T07:39:45;5.03;;;2.47;;
10661;SDS011;5379;51.034;7.006;2024-01-16T07:42:13;8.87;;;3.10;;
10661;SDS011;5379;51.034;7.006;2024-01-16T07:44:40;8.00;;;2.27;;
10661;SDS011;5379;51.034;7.006;2024-01-16T07:47:07;14.97;;;3.13;;
10661;SDS011;5379;51.034;7.006;2024-01-16T07:49:36;9.60;;;2.97;;
10661;SDS011;5379;51.034;7.006;2024-01-16T07:52:03;2.13;;;2.00;;
10661;SDS011;5379;51.034;7.006;2024-01-16T07:54:31;2.10;;;1.93;;
10661;SDS011;5379;51.034;7.006;2024-01-16T07:56:58;10.20;;;2.47;;
10661;SDS011;5379;51.034;7.006;2024-01-16T07:59:26;3.77;;;2.37;;
10661;SDS011;5379;51.034;7.006;2024-01-16T08:01:53;2.43;;;1.97;;
10661;SDS011;5379;51.034;7.006;2024-01-16T08:04:20;6.47;;;2.37;;
10661;SDS011;5379;51.034;7.006;2024-01-16T08:06:48;3.30;;;2.20;;
10661;SDS011;5379;51.034;7.006;2024-01-16T08:09:15;3.90;;;2.33;;
10661;SDS011;5379;51.034;7.006;2024-01-16T08:11:42;2.20;;;2.00;;
10661;SDS011;5379;51.034;7.006;2024-01-16T08:14:10;2.80;;;2.60;;
10661;SDS011;5379;51.034;7.006;2024-01-16T08:16:37;6.40;;;2.63;;
10661;SDS011;5379;51.034;7.006;2024-01-16T08:19:04;2.93;;;2.00;;
10661;SDS011;5379;51.034;7.006;2024-01-16T08:21:31;3.10;;;2.53;;
10661;SDS011;5379;51.034;7.006;2024-01-16T08:24:00;3.77;;;2.17;;
10661;SDS011;5379;51.034;7.006;2024-01-16T08:26:27;2.27;;;2.07;;
10661;SDS011;5379;51.034;7.006;2024-01-16T08:28:54;4.30;;;2.30;;
10661;SDS011;5379;51.034;7.006;2024-01-16T08:31:22;2.17;;;1.93;;
10661;SDS011;5379;51.034;7.006;2024-01-16T08:33:49;2.40;;;1.93;;
10661;SDS011;5379;51.034;7.006;2024-01-16T08:36:16;1.87;;;1.77;;
10661;SDS011;5379;51.034;7.006;2024-01-16T08:38:43;3.13;;;2.20;;
10661;SDS011;5379;51.034;7.006;2024-01-16T08:41:12;2.03;;;1.90;;
10661;SDS011;5379;51.034;7.006;2024-01-16T08:43:39;1.93;;;1.83;;
10661;SDS011;5379;51.034;7.006;2024-01-16T08:46:06;2.93;;;2.30;;
10661;SDS011;5379;51.034;7.006;2024-01-16T08:48:34;5.67;;;2.67;;
10661;SDS011;5379;51.034;7.006;2024-01-16T08:51:03;2.07;;;1.93;;
10661;SDS011;5379;51.034;7.006;2024-01-16T08:53:32;1.93;;;1.83;;
10661;SDS011;5379;51.034;7.006;2024-01-16T08:55:59;4.45;;;2.63;;
10661;SDS011;5379;51.034;7.006;2024-01-16T08:58:28;5.07;;;2.50;;
10661;SDS011;5379;51.034;7.006;2024-01-16T09:00:57;7.30;;;2.47;;
10661;SDS011;5379;51.034;7.006;2024-01-16T09:03:25;1.77;;;1.70;;
10661;SDS011;5379;51.034;7.006;2024-01-16T09:05:52;3.60;;;2.03;;
10661;SDS011;5379;51.034;7.006;2024-01-16T09:08:19;2.53;;;1.70;;
10661;SDS011;5379;51.034;7.006;2024-01-16T09:10:46;3.70;;;2.17;;
10661;SDS011;5379;51.034;7.006;2024-01-16T09:13:14;3.00;;;1.60;;
10661;SDS011;5379;51.034;7.006;2024-01-16T09:15:42;4.27;;;2.47;;
10661;SDS011;5379;51.034;7.006;2024-01-16T09:18:09;6.57;;;1.83;;
10661;SDS011;5379;51.034;7.006;2024-01-16T09:20:36;3.23;;;1.90;;
10661;SDS011;5379;51.034;7.006;2024-01-16T09:23:03;3.70;;;1.93;;
10661;SDS011;5379;51.034;7.006;2024-01-16T09:25:31;2.63;;;1.90;;
10661;SDS011;5379;51.034;7.006;2024-01-16T09:27:58;2.10;;;1.90;;
10661;SDS011;5379;51.034;7.006;2024-01-16T09:30:25;2.60;;;2.07;;
10661;SDS011;5379;51.034;7.006;2024-01-16T09:32:53;3.33;;;2.10;;
10661;SDS011;5379;51.034;7.006;2024-01-16T09:35:21;4.43;;;2.67;;
10661;SDS011;5379;51.034;7.006;2024-01-16T09:37:48;2.93;;;2.07;;
10661;SDS011;5379;51.034;7.006;2024-01-16T09:40:16;6.23;;;2.20;;
10661;SDS011;5379;51.034;7.006;2024-01-16T09:42:43;4.23;;;2.00;;
10661;SDS011;5379;51.034;7.006;2024-01-16T09:45:11;1.90;;;1.80;;
10661;SDS011;5379;51.034;7.006;2024-01-16T09:47:42;5.63;;;2.63;;
10661;SDS011;5379;51.034;7.006;2024-01-16T09:50:10;1.40;;;1.30;;
10661;SDS011;5379;51.034;7.006;2024-01-16T09:52:38;2.23;;;1.60;;
10661;SDS011;5379;51.034;7.006;2024-01-16T09:55:05;2.77;;;2.17;;
10661;SDS011;5379;51.034;7.006;2024-01-16T09:57:33;3.63;;;2.27;;
10661;SDS011;5379;51.034;7.006;2024-01-16T10:00:05;1.57;;;1.47;;
10661;SDS011;5379;51.034;7.006;2024-01-16T10:02:36;2.83;;;2.60;;
10661;SDS011;5379;51.034;7.006;2024-01-16T10:05:04;1.90;;;1.80;;
10661;SDS011;5379;51.034;7.006;2024-01-16T10:07:34;1.90;;;1.80;;
10661;SDS011;5379;51.034;7.006;2024-01-16T10:10:03;4.80;;;2.77;;
10661;SDS011;5379;51.034;7.006;2024-01-16T10:12:31;13.13;;;2.40;;
10661;SDS011;5379;51.034;7.006;2024-01-16T10:14:58;4.30;;;2.17;;
10661;SDS011;5379;51.034;7.006;2024-01-16T10:17:35;3.60;;;1.80;;
10661;SDS011;5379;51.034;7.006;2024-01-16T10:20:02;2.40;;;1.87;;
10661;SDS011;5379;51.034;7.006;2024-01-16T10:22:30;3.83;;;2.50;;
10661;SDS011;5379;51.034;7.006;2024-01-16T10:25:08;2.10;;;1.77;;
10661;SDS011;5379;51.034;7.006;2024-01-16T10:27:37;2.20;;;1.87;;
10661;SDS011;5379;51.034;7.006;2024-01-16T10:30:05;1.63;;;1.53;;
10661;SDS011;5379;51.034;7.006;2024-01-16T10:32:34;2.33;;;2.13;;
10661;SDS011;5379;51.034;7.006;2024-01-16T10:35:03;1.93;;;1.60;;
10661;SDS011;5379;51.034;7.006;2024-01-16T10:37:31;6.47;;;2.27;;
10661;SDS011;5379;51.034;7.006;2024-01-16T10:39:58;2.30;;;2.17;;
10661;SDS011;5379;51.034;7.006;2024-01-16T10:42:26;2.23;;;2.03;;
10661;SDS011;5379;51.034;7.006;2024-01-16T10:44:53;4.60;;;2.50;;
10661;SDS011;5379;51.034;7.006;2024-01-16T10:47:21;2.00;;;1.60;;
10661;SDS011;5379;51.034;7.006;2024-01-16T10:49:48;1.43;;;1.33;;
10661;SDS011;5379;51.034;7.006;2024-01-16T10:52:15;1.83;;;1.73;;
10661;SDS011;5379;51.034;7.006;2024-01-16T10:54:44;2.67;;;2.03;;
10661;SDS011;5379;51.034;7.006;2024-01-16T10:57:14;2.67;;;2.00;;
10661;SDS011;5379;51.034;7.006;2024-01-16T10:59:46;4.40;;;2.43;;
10661;SDS011;5379;51.034;7.006;2024-01-16T11:02:23;2.03;;;1.93;;
10661;SDS011;5379;51.034;7.006;2024-01-16T11:04:54;1.33;;;1.33;;
10661;SDS011;5379;51.034;7.006;2024-01-16T11:07:23;3.23;;;2.10;;
10661;SDS011;5379;51.034;7.006;2024-01-16T11:09:51;4.07;;;2.43;;
10661;SDS011;5379;51.034;7.006;2024-01-16T11:12:19;15.57;;;2.20;;
10661;SDS011;5379;51.034;7.006;2024-01-16T11:14:49;7.37;;;2.30;;
10661;SDS011;5379;51.034;7.006;2024-01-16T11:17:18;2.70;;;2.20;;
10661;SDS011;5379;51.034;7.006;2024-01-16T11:19:46;3.97;;;1.83;;
10661;SDS011;5379;51.034;7.006;2024-01-16T11:22:14;3.50;;;2.17;;
10661;SDS011;5379;51.034;7.006;2024-01-16T11:24:42;7.30;;;2.80;;
10661;SDS011;5379;51.034;7.006;2024-01-16T11:27:21;11.83;;;2.40;;
10661;SDS011;5379;51.034;7.006;2024-01-16T11:29:50;13.63;;;2.07;;
10661;SDS011;5379;51.034;7.006;2024-01-16T11:32:32;2.07;;;1.50;;
10661;SDS011;5379;51.034;7.006;2024-01-16T11:34:59;2.17;;;2.00;;
10661;SDS011;5379;51.034;7.006;2024-01-16T11:37:27;2.20;;;2.00;;
10661;SDS011;5379;51.034;7.006;2024-01-16T11:42:51;2.03;;;1.83;;
10661;SDS011;5379;51.034;7.006;2024-01-16T11:48:19;3.67;;;1.97;;
10661;SDS011;5379;51.034;7.006;2024-01-16T11:50:45;7.13;;;1.70;;
10661;SDS011;5379;51.034;7.006;2024-01-16T11:53:31;12.43;;;2.33;;
10661;SDS011;5379;51.034;7.006;2024-01-16T12:02:10;1.37;;;1.30;;
10661;SDS011;5379;51.034;7.006;2024-01-16T12:04:49;4.43;;;2.33;;
10661;SDS011;5379;51.034;7.006;2024-01-16T12:07:19;2.87;;;2.10;;
10661;SDS011;5379;51.034;7.006;2024-01-16T12:09:46;3.83;;;2.40;;
10661;SDS011;5379;51.034;7.006;2024-01-16T12:12:14;2.13;;;1.97;;
10661;SDS011;5379;51.034;7.006;2024-01-16T12:14:50;7.50;;;2.42;;
10661;SDS011;5379;51.034;7.006;2024-01-16T12:17:20;2.13;;;1.90;;
10661;SDS011;5379;51.034;7.006;2024-01-16T12:19:46;5.67;;;2.27;;
10661;SDS011;5379;51.034;7.006;2024-01-16T12:22:15;4.83;;;2.20;;
10661;SDS011;5379;51.034;7.006;2024-01-16T12:24:43;2.23;;;1.87;;
10661;SDS011;5379;51.034;7.006;2024-01-16T12:27:10;3.00;;;2.10;;
10661;SDS011;5379;51.034;7.006;2024-01-16T12:29:37;1.90;;;1.83;;
10661;SDS011;5379;51.034;7.006;2024-01-16T12:32:07;6.60;;;2.20;;
10661;SDS011;5379;51.034;7.006;2024-01-16T12:34:41;7.50;;;2.43;;
10661;SDS011;5379;51.034;7.006;2024-01-16T12:37:11;2.17;;;1.97;;
10661;SDS011;5379;51.034;7.006;2024-01-16T12:39:39;5.13;;;2.83;;
10661;SDS011;5379;51.034;7.006;2024-01-16T12:42:06;4.17;;;2.43;;
10661;SDS011;5379;51.034;7.006;2024-01-16T12:44:35;2.40;;;2.20;;
10661;SDS011;5379;51.034;7.006;2024-01-16T12:47:02;1.97;;;1.87;;
10661;SDS011;5379;51.034;7.006;2024-01-16T12:49:29;1.80;;;1.70;;
10661;SDS011;5379;51.034;7.006;2024-01-16T12:52:16;9.93;;;3.00;;
10661;SDS011;5379;51.034;7.006;2024-01-16T12:54:47;4.07;;;3.40;;
10661;SDS011;5379;51.034;7.006;2024-01-16T12:57:18;2.83;;;2.07;;
10661;SDS011;5379;51.034;7.006;2024-01-16T12:59:46;2.80;;;2.17;;
10661;SDS011;5379;51.034;7.006;2024-01-16T13:02:20;3.27;;;2.50;;
10661;SDS011;5379;51.034;7.006;2024-01-16T13:04:48;2.00;;;1.80;;
10661;SDS011;5379;51.034;7.006;2024-01-16T13:07:25;3.10;;;2.50;;
10661;SDS011;5379;51.034;7.006;2024-01-16T13:10:05;2.80;;;2.40;;
10661;SDS011;5379;51.034;7.006;2024-01-16T13:12:34;7.67;;;2.40;;
10661;SDS011;5379;51.034;7.006;2024-01-16T13:15:01;2.43;;;2.23;;
10661;SDS011;5379;51.034;7.006;2024-01-16T13:17:30;2.20;;;2.10;;
10661;SDS011;5379;51.034;7.006;2024-01-16T13:19:58;2.83;;;2.60;;
10661;SDS011;5379;51.034;7.006;2024-01-16T13:22:26;8.07;;;2.90;;
10661;SDS011;5379;51.034;7.006;2024-01-16T13:24:53;13.77;;;2.83;;
10661;SDS011;5379;51.034;7.006;2024-01-16T13:27:20;2.97;;;2.17;;
10661;SDS011;5379;51.034;7.006;2024-01-16T13:29:48;2.87;;;2.60;;
10661;SDS011;5379;51.034;7.006;2024-01-16T13:32:15;4.37;;;2.30;;
10661;SDS011;5379;51.034;7.006;2024-01-16T13:34:42;2.87;;;2.13;;
10661;SDS011;5379;51.034;7.006;2024-01-16T13:37:15;2.43;;;2.33;;
10661;SDS011;5379;51.034;7.006;2024-01-16T13:39:47;2.10;;;1.90;;
10661;SDS011;5379;51.034;7.006;2024-01-16T13:42:14;2.20;;;2.10;;
10661;SDS011;5379;51.034;7.006;2024-01-16T13:44:43;8.67;;;2.30;;
10661;SDS011;5379;51.034;7.006;2024-01-16T13:47:11;2.63;;;2.43;;
10661;SDS011;5379;51.034;7.006;2024-01-16T13:49:38;2.20;;;2.00;;
10661;SDS011;5379;51.034;7.006;2024-01-16T13:52:06;5.37;;;2.53;;
10661;SDS011;5379;51.034;7.006;2024-01-16T13:54:35;3.60;;;2.30;;
10661;SDS011;5379;51.034;7.006;2024-01-16T13:57:04;11.27;;;2.70;;
10661;SDS011;5379;51.034;7.006;2024-01-16T13:59:31;3.50;;;2.23;;
10661;SDS011;5379;51.034;7.006;2024-01-16T14:01:58;2.63;;;2.27;;
10661;SDS011;5379;51.034;7.006;2024-01-16T14:04:26;7.87;;;2.70;;
10661;SDS011;5379;51.034;7.006;2024-01-16T14:06:52;14.60;;;2.60;;
10661;SDS011;5379;51.034;7.006;2024-01-16T14:09:19;1.83;;;1.73;;
10661;SDS011;5379;51.034;7.006;2024-01-16T14:11:46;2.70;;;2.47;;
10661;SDS011;5379;51.034;7.006;2024-01-16T14:14:14;3.00;;;2.40;;
10661;SDS011;5379;51.034;7.006;2024-01-16T14:16:41;2.53;;;2.30;;
10661;SDS011;5379;51.034;7.006;2024-01-16T14:19:08;2.10;;;1.90;;
10661;SDS011;5379;51.034;7.006;2024-01-16T14:21:34;3.20;;;2.27;;
10661;SDS011;5379;51.034;7.006;2024-01-16T14:24:01;6.67;;;3.00;;
10661;SDS011;5379;51.034;7.006;2024-01-16T14:26:28;2.80;;;2.60;;
10661;SDS011;5379;51.034;7.006;2024-01-16T14:28:55;3.17;;;2.80;;
10661;SDS011;5379;51.034;7.006;2024-01-16T14:31:24;3.77;;;2.47;;
10661;SDS011;5379;51.034;7.006;2024-01-16T14:33:51;2.77;;;2.37;;
10661;SDS011;5379;51.034;7.006;2024-01-16T14:36:18;2.77;;;2.50;;
10661;SDS011;5379;51.034;7.006;2024-01-16T14:38:46;2.77;;;2.30;;
10661;SDS011;5379;51.034;7.006;2024-01-16T14:41:13;7.37;;;2.23;;
10661;SDS011;5379;51.034;7.006;2024-01-16T14:43:41;2.10;;;1.70;;
10661;SDS011;5379;51.034;7.006;2024-01-16T14:46:08;3.27;;;2.07;;
10661;SDS011;5379;51.034;7.006;2024-01-16T14:48:37;2.37;;;2.17;;
10661;SDS011;5379;51.034;7.006;2024-01-16T14:51:04;2.93;;;2.03;;
10661;SDS011;5379;51.034;7.006;2024-01-16T14:53:31;2.60;;;2.30;;
10661;SDS011;5379;51.034;7.006;2024-01-16T14:55:57;3.93;;;2.50;;
10661;SDS011;5379;51.034;7.006;2024-01-16T14:58:24;2.07;;;1.97;;
10661;SDS011;5379;51.034;7.006;2024-01-16T15:00:51;2.40;;;2.30;;
10661;SDS011;5379;51.034;7.006;2024-01-16T15:03:18;6.93;;;2.40;;
10661;SDS011;5379;51.034;7.006;2024-01-16T15:05:47;2.03;;;1.93;;
10661;SDS011;5379;51.034;7.006;2024-01-16T15:08:14;2.40;;;2.20;;
10661;SDS011;5379;51.034;7.006;2024-01-16T15:10:41;1.90;;;1.80;;
10661;SDS011;5379;51.034;7.006;2024-01-16T15:13:08;6.47;;;2.50;;
10661;SDS011;5379;51.034;7.006;2024-01-16T15:15:35;2.60;;;2.40;;
10661;SDS011;5379;51.034;7.006;2024-01-16T15:18:02;2.67;;;2.47;;
10661;SDS011;5379;51.034;7.006;2024-01-16T15:20:29;2.60;;;2.40;;
10661;SDS011;5379;51.034;7.006;2024-01-16T15:22:57;3.60;;;2.73;;
10661;SDS011;5379;51.034;7.006;2024-01-16T15:25:24;8.57;;;2.67;;
10661;SDS011;5379;51.034;7.006;2024-01-16T15:27:51;3.63;;;2.57;;
10661;SDS011;5379;51.034;7.006;2024-01-16T15:30:19;3.10;;;2.80;;
10661;SDS011;5379;51.034;7.006;2024-01-16T15:32:46;2.87;;;2.37;;
10661;SDS011;5379;51.034;7.006;2024-01-16T15:35:14;3.90;;;2.40;;
10661;SDS011;5379;51.034;7.006;2024-01-16T15:37:41;5.60;;;2.47;;
10661;SDS011;5379;51.034;7.006;2024-01-16T15:40:10;3.77;;;2.63;;
10661;SDS011;5379;51.034;7.006;2024-01-16T15:42:39;2.70;;;2.50;;
10661;SDS011;5379;51.034;7.006;2024-01-16T15:45:07;2.13;;;2.03;;
10661;SDS011;5379;51.034;7.006;2024-01-16T15:47:36;2.60;;;2.43;;
10661;SDS011;5379;51.034;7.006;2024-01-16T15:50:03;3.73;;;2.37;;
10661;SDS011;5379;51.034;7.006;2024-01-16T15:52:31;2.63;;;2.43;;
10661;SDS011;5379;51.034;7.006;2024-01-16T15:54:58;2.77;;;2.57;;
10661;SDS011;5379;51.034;7.006;2024-01-16T15:57:26;2.97;;;2.70;;
10661;SDS011;5379;51.034;7.006;2024-01-16T15:59:53;2.40;;;2.23;;
10661;SDS011;5379;51.034;7.006;2024-01-16T16:02:20;2.23;;;2.10;;
10661;SDS011;5379;51.034;7.006;2024-01-16T16:04:46;3.03;;;2.47;;
10661;SDS011;5379;51.034;7.006;2024-01-16T16:07:13;3.03;;;2.70;;
10661;SDS011;5379;51.034;7.006;2024-01-16T16:09:41;2.83;;;2.63;;
10661;SDS011;5379;51.034;7.006;2024-01-16T16:12:07;3.40;;;2.90;;
10661;SDS011;5379;51.034;7.006;2024-01-16T16:14:36;3.97;;;3.17;;
10661;SDS011;5379;51.034;7.006;2024-01-16T16:17:05;3.07;;;2.87;;
10661;SDS011;5379;51.034;7.006;2024-01-16T16:19:33;4.97;;;3.43;;
10661;SDS011;5379;51.034;7.006;2024-01-16T16:22:00;3.47;;;3.20;;
10661;SDS011;5379;51.034;7.006;2024-01-16T16:24:27;3.60;;;2.63;;
10661;SDS011;5379;51.034;7.006;2024-01-16T16:26:55;3.03;;;2.63;;
10661;SDS011;5379;51.034;7.006;2024-01-16T16:29:24;5.70;;;2.97;;
10661;SDS011;5379;51.034;7.006;2024-01-16T16:31:52;4.20;;;3.40;;
10661;SDS011;5379;51.034;7.006;2024-01-16T16:34:19;4.33;;;3.37;;
10661;SDS011;5379;51.034;7.006;2024-01-16T16:36:46;3.07;;;2.77;;
10661;SDS011;5379;51.034;7.006;2024-01-16T16:39:13;12.67;;;3.30;;
10661;SDS011;5379;51.034;7.006;2024-01-16T16:41:41;5.23;;;2.90;;
10661;SDS011;5379;51.034;7.006;2024-01-16T16:44:08;7.23;;;3.27;;
10661;SDS011;5379;51.034;7.006;2024-01-16T16:46:35;3.53;;;2.67;;
10661;SDS011;5379;51.034;7.006;2024-01-16T16:49:03;2.97;;;2.53;;
10661;SDS011;5379;51.034;7.006;2024-01-16T16:51:30;2.90;;;2.70;;
10661;SDS011;5379;51.034;7.006;2024-01-16T16:54:02;3.57;;;2.70;;
10661;SDS011;5379;51.034;7.006;2024-01-16T16:56:29;8.00;;;3.17;;
10661;SDS011;5379;51.034;7.006;2024-01-16T16:58:57;3.90;;;2.83;;
10661;SDS011;5379;51.034;7.006;2024-01-16T17:01:24;4.03;;;3.00;;
10661;SDS011;5379;51.034;7.006;2024-01-16T17:03:50;2.73;;;2.47;;
10661;SDS011;5379;51.034;7.006;2024-01-16T17:06:19;9.03;;;3.27;;
10661;SDS011;5379;51.034;7.006;2024-01-16T17:08:46;3.13;;;2.83;;
10661;SDS011;5379;51.034;7.006;2024-01-16T17:11:12;3.43;;;2.57;;
10661;SDS011;5379;51.034;7.006;2024-01-16T17:13:40;3.83;;;3.37;;
10661;SDS011;5379;51.034;7.006;2024-01-16T17:16:10;4.53;;;3.53;;
10661;SDS011;5379;51.034;7.006;2024-01-16T17:18:38;3.80;;;2.63;;
10661;SDS011;5379;51.034;7.006;2024-01-16T17:21:06;4.23;;;3.30;;
10661;SDS011;5379;51.034;7.006;2024-01-16T17:23:34;5.43;;;2.83;;
10661;SDS011;5379;51.034;7.006;2024-01-16T17:26:01;4.93;;;2.60;;
10661;SDS011;5379;51.034;7.006;2024-01-16T17:28:30;3.33;;;2.90;;
10661;SDS011;5379;51.034;7.006;2024-01-16T17:30:57;5.00;;;2.73;;
10661;SDS011;5379;51.034;7.006;2024-01-16T17:33:24;5.93;;;2.90;;
10661;SDS011;5379;51.034;7.006;2024-01-16T17:35:51;2.80;;;2.60;;
10661;SDS011;5379;51.034;7.006;2024-01-16T17:38:19;3.77;;;3.23;;
10661;SDS011;5379;51.034;7.006;2024-01-16T17:40:48;2.53;;;2.33;;
10661;SDS011;5379;51.034;7.006;2024-01-16T17:43:15;4.70;;;3.40;;
10661;SDS011;5379;51.034;7.006;2024-01-16T17:45:41;3.57;;;2.90;;
10661;SDS011;5379;51.034;7.006;2024-01-16T17:48:09;2.37;;;2.27;;
10661;SDS011;5379;51.034;7.006;2024-01-16T17:50:36;2.50;;;2.30;;
10661;SDS011;5379;51.034;7.006;2024-01-16T17:53:03;4.83;;;2.57;;
10661;SDS011;5379;51.034;7.006;2024-01-16T17:55:31;3.77;;;2.63;;
10661;SDS011;5379;51.034;7.006;2024-01-16T17:57:59;2.97;;;2.77;;
10661;SDS011;5379;51.034;7.006;2024-01-16T18:00:26;4.57;;;3.50;;
10661;SDS011;5379;51.034;7.006;2024-01-16T18:02:54;5.10;;;3.23;;
10661;SDS011;5379;51.034;7.006;2024-01-16T18:05:21;3.30;;;3.07;;
10661;SDS011;5379;51.034;7.006;2024-01-16T18:07:48;4.20;;;3.23;;
10661;SDS011;5379;51.034;7.006;2024-01-16T18:10:15;4.40;;;3.37;;
10661;SDS011;5379;51.034;7.006;2024-01-16T18:12:44;6.43;;;3.33;;
10661;SDS011;5379;51.034;7.006;2024-01-16T18:15:13;4.87;;;3.43;;
10661;SDS011;5379;51.034;7.006;2024-01-16T18:17:40;9.77;;;4.13;;
10661;SDS011;5379;51.034;7.006;2024-01-16T18:20:10;11.27;;;3.87;;
10661;SDS011;5379;51.034;7.006;2024-01-16T18:22:38;6.87;;;3.63;;
10661;SDS011;5379;51.034;7.006;2024-01-16T18:25:06;4.93;;;4.03;;
10661;SDS011;5379;51.034;7.006;2024-01-16T18:27:33;4.00;;;3.50;;
10661;SDS011;5379;51.034;7.006;2024-01-16T18:30:02;4.37;;;3.97;;
10661;SDS011;5379;51.034;7.006;2024-01-16T18:32:31;8.53;;;4.00;;
10661;SDS011;5379;51.034;7.006;2024-01-16T18:34:58;8.13;;;4.73;;
10661;SDS011;5379;51.034;7.006;2024-01-16T18:37:25;9.93;;;4.13;;
10661;SDS011;5379;51.034;7.006;2024-01-16T18:39:51;16.13;;;4.10;;
10661;SDS011;5379;51.034;7.006;2024-01-16T18:42:18;7.40;;;3.70;;
10661;SDS011;5379;51.034;7.006;2024-01-16T18:44:47;4.03;;;3.60;;
10661;SDS011;5379;51.034;7.006;2024-01-16T18:47:14;4.60;;;3.63;;
10661;SDS011;5379;51.034;7.006;2024-01-16T18:49:42;3.87;;;3.43;;
10661;SDS011;5379;51.034;7.006;2024-01-16T18:52:10;21.70;;;4.63;;
10661;SDS011;5379;51.034;7.006;2024-01-16T18:54:36;5.50;;;4.00;;
10661;SDS011;5379;51.034;7.006;2024-01-16T18:57:04;4.60;;;3.97;;
10661;SDS011;5379;51.034;7.006;2024-01-16T18:59:30;5.27;;;3.30;;
10661;SDS011;5379;51.034;7.006;2024-01-16T19:01:57;3.50;;;3.23;;
10661;SDS011;5379;51.034;7.006;2024-01-16T19:04:24;5.33;;;3.67;;
10661;SDS011;5379;51.034;7.006;2024-01-16T19:06:52;6.50;;;3.17;;
10661;SDS011;5379;51.034;7.006;2024-01-16T19:09:19;3.67;;;3.37;;
10661;SDS011;5379;51.034;7.006;2024-01-16T19:11:46;3.40;;;3.10;;
10661;SDS011;5379;51.034;7.006;2024-01-16T19:14:14;4.30;;;3.90;;
10661;SDS011;5379;51.034;7.006;2024-01-16T19:16:41;7.30;;;4.03;;
10661;SDS011;5379;51.034;7.006;2024-01-16T19:19:08;5.13;;;3.40;;
10661;SDS011;5379;51.034;7.006;2024-01-16T19:21:35;5.83;;;3.90;;
10661;SDS011;5379;51.034;7.006;2024-01-16T19:24:04;5.60;;;3.67;;
10661;SDS011;5379;51.034;7.006;2024-01-16T19:26:31;13.83;;;3.90;;
10661;SDS011;5379;51.034;7.006;2024-01-16T19:28:58;6.60;;;4.40;;
10661;SDS011;5379;51.034;7.006;2024-01-16T19:31:25;19.30;;;4.53;;
10661;SDS011;5379;51.034;7.006;2024-01-16T19:33:55;4.40;;;3.90;;
10661;SDS011;5379;51.034;7.006;2024-01-16T19:36:21;4.13;;;3.77;;
10661;SDS011;5379;51.034;7.006;2024-01-16T19:38:48;5.83;;;4.30;;
10661;SDS011;5379;51.034;7.006;2024-01-16T19:41:16;6.93;;;4.00;;
10661;SDS011;5379;51.034;7.006;2024-01-16T19:43:44;3.77;;;3.47;;
10661;SDS011;5379;51.034;7.006;2024-01-16T19:46:12;3.87;;;3.57;;